sensor_id;sensor_type;location;lat;lon;timestamp;P1;durP1;ratioP1;P2;durP2;ratioP2
66626;SDS011;53498;50.422;14.912;2023-03-31T00:00:46;4.38;;;2.47;;
66626;SDS011;53498;50.422;14.912;2023-03-31T00:03:16;3.92;;;2.38;;
66626;SDS011;53498;50.422;14.912;2023-03-31T00:05:46;3.33;;;2.42;;
66626;SDS011;53498;50.422;14.912;2023-03-31T00:08:17;3.03;;;2.40;;
66626;SDS011;53498;50.422;14.912;2023-03-31T00:10:44;3.42;;;2.50;;
66626;SDS011;53498;50.422;14.912;2023-03-31T00:13:11;4.78;;;2.60;;
66626;SDS011;53498;50.422;14.912;2023-03-31T00:15:37;4.82;;;3.03;;
66626;SDS011;53498;50.422;14.912;2023-03-31T00:18:03;5.32;;;2.92;;
66626;SDS011;53498;50.422;14.912;2023-03-31T00:20:29;4.10;;;2.97;;
66626;SDS011;53498;50.422;14.912;2023-03-31T00:22:58;3.75;;;3.00;;
66626;SDS011;53498;50.422;14.912;2023-03-31T00:25:26;4.35;;;2.80;;
66626;SDS011;53498;50.422;14.912;2023-03-31T00:27:52;4.10;;;2.55;;
66626;SDS011;53498;50.422;14.912;2023-03-31T00:30:18;3.90;;;2.47;;
66626;SDS011;53498;50.422;14.912;2023-03-31T00:35:43;4.38;;;3.08;;
66626;SDS011;53498;50.422;14.912;2023-03-31T00:38:10;4.70;;;2.90;;
66626;SDS011;53498;50.422;14.912;2023-03-31T00:40:42;4.90;;;3.58;;
66626;SDS011;53498;50.422;14.912;2023-03-31T00:43:16;5.28;;;3.20;;
66626;SDS011;53498;50.422;14.912;2023-03-31T00:45:50;5.95;;;3.58;;
66626;SDS011;53498;50.422;14.912;2023-03-31T00:48:17;5.22;;;2.95;;
66626;SDS011;53498;50.422;14.912;2023-03-31T00:50:51;3.92;;;3.35;;
66626;SDS011;53498;50.422;14.912;2023-03-31T00:53:22;4.85;;;2.90;;
66626;SDS011;53498;50.422;14.912;2023-03-31T00:55:52;4.32;;;3.38;;
66626;SDS011;53498;50.422;14.912;2023-03-31T00:58:20;4.35;;;2.90;;
66626;SDS011;53498;50.422;14.912;2023-03-31T01:00:52;4.22;;;3.22;;
66626;SDS011;53498;50.422;14.912;2023-03-31T01:03:21;3.47;;;3.10;;
66626;SDS011;53498;50.422;14.912;2023-03-31T01:05:49;5.22;;;3.25;;
66626;SDS011;53498;50.422;14.912;2023-03-31T01:08:19;3.97;;;2.55;;
66626;SDS011;53498;50.422;14.912;2023-03-31T01:10:50;4.18;;;2.63;;
66626;SDS011;53498;50.422;14.912;2023-03-31T01:13:18;6.32;;;2.80;;
66626;SDS011;53498;50.422;14.912;2023-03-31T01:15:46;4.43;;;2.75;;
66626;SDS011;53498;50.422;14.912;2023-03-31T01:18:12;5.05;;;3.10;;
66626;SDS011;53498;50.422;14.912;2023-03-31T01:26:59;5.07;;;2.80;;
66626;SDS011;53498;50.422;14.912;2023-03-31T01:29:46;10.10;;;3.25;;
66626;SDS011;53498;50.422;14.912;2023-03-31T01:48:44;3.90;;;3.22;;
66626;SDS011;53498;50.422;14.912;2023-03-31T01:51:18;5.57;;;2.80;;
66626;SDS011;53498;50.422;14.912;2023-03-31T01:53:54;6.18;;;3.35;;
66626;SDS011;53498;50.422;14.912;2023-03-31T02:01:33;4.25;;;2.80;;
66626;SDS011;53498;50.422;14.912;2023-03-31T02:04:03;6.03;;;3.53;;
66626;SDS011;53498;50.422;14.912;2023-03-31T02:06:34;5.93;;;2.67;;
66626;SDS011;53498;50.422;14.912;2023-03-31T02:09:05;3.83;;;3.17;;
66626;SDS011;53498;50.422;14.912;2023-03-31T02:11:42;6.40;;;3.42;;
66626;SDS011;53498;50.422;14.912;2023-03-31T02:14:10;3.97;;;2.78;;
66626;SDS011;53498;50.422;14.912;2023-03-31T02:16:42;4.68;;;2.92;;
66626;SDS011;53498;50.422;14.912;2023-03-31T02:19:11;4.25;;;3.38;;
66626;SDS011;53498;50.422;14.912;2023-03-31T02:21:43;3.85;;;3.15;;
66626;SDS011;53498;50.422;14.912;2023-03-31T02:24:12;4.43;;;2.88;;
66626;SDS011;53498;50.422;14.912;2023-03-31T02:26:41;6.38;;;3.13;;
66626;SDS011;53498;50.422;14.912;2023-03-31T02:29:27;6.97;;;3.72;;
66626;SDS011;53498;50.422;14.912;2023-03-31T02:37:25;5.13;;;3.50;;
66626;SDS011;53498;50.422;14.912;2023-03-31T02:39:53;5.05;;;3.22;;
66626;SDS011;53498;50.422;14.912;2023-03-31T02:42:21;4.88;;;2.88;;
66626;SDS011;53498;50.422;14.912;2023-03-31T02:44:47;6.88;;;3.22;;
66626;SDS011;53498;50.422;14.912;2023-03-31T02:47:14;4.97;;;3.67;;
66626;SDS011;53498;50.422;14.912;2023-03-31T02:49:43;4.65;;;3.35;;
66626;SDS011;53498;50.422;14.912;2023-03-31T03:04:15;7.20;;;3.38;;
66626;SDS011;53498;50.422;14.912;2023-03-31T03:15:36;6.60;;;4.78;;
66626;SDS011;53498;50.422;14.912;2023-03-31T03:18:08;8.15;;;5.05;;
66626;SDS011;53498;50.422;14.912;2023-03-31T03:20:34;7.95;;;4.85;;
66626;SDS011;53498;50.422;14.912;2023-03-31T03:23:00;5.68;;;4.38;;
66626;SDS011;53498;50.422;14.912;2023-03-31T03:25:26;6.05;;;4.10;;
66626;SDS011;53498;50.422;14.912;2023-03-31T03:27:51;5.38;;;4.15;;
66626;SDS011;53498;50.422;14.912;2023-03-31T03:30:17;6.30;;;5.10;;
66626;SDS011;53498;50.422;14.912;2023-03-31T03:32:43;5.07;;;4.35;;
66626;SDS011;53498;50.422;14.912;2023-03-31T03:35:09;6.82;;;4.82;;
66626;SDS011;53498;50.422;14.912;2023-03-31T03:37:35;6.82;;;4.93;;
66626;SDS011;53498;50.422;14.912;2023-03-31T03:40:01;5.95;;;4.63;;
66626;SDS011;53498;50.422;14.912;2023-03-31T03:42:29;8.48;;;4.95;;
66626;SDS011;53498;50.422;14.912;2023-03-31T03:44:58;5.85;;;4.57;;
66626;SDS011;53498;50.422;14.912;2023-03-31T03:47:23;9.27;;;4.57;;
66626;SDS011;53498;50.422;14.912;2023-03-31T03:49:49;7.75;;;5.03;;
66626;SDS011;53498;50.422;14.912;2023-03-31T03:52:15;8.60;;;5.32;;
66626;SDS011;53498;50.422;14.912;2023-03-31T03:54:41;10.75;;;5.10;;
66626;SDS011;53498;50.422;14.912;2023-03-31T03:57:06;7.65;;;5.57;;
66626;SDS011;53498;50.422;14.912;2023-03-31T03:59:32;7.78;;;4.50;;
66626;SDS011;53498;50.422;14.912;2023-03-31T04:01:57;7.22;;;4.68;;
66626;SDS011;53498;50.422;14.912;2023-03-31T04:04:23;8.52;;;4.82;;
66626;SDS011;53498;50.422;14.912;2023-03-31T04:06:49;6.90;;;5.38;;
66626;SDS011;53498;50.422;14.912;2023-03-31T04:09:14;10.63;;;5.18;;
66626;SDS011;53498;50.422;14.912;2023-03-31T04:11:40;7.93;;;4.45;;
66626;SDS011;53498;50.422;14.912;2023-03-31T04:14:05;7.22;;;4.40;;
66626;SDS011;53498;50.422;14.912;2023-03-31T04:16:31;7.47;;;4.75;;
66626;SDS011;53498;50.422;14.912;2023-03-31T04:18:58;6.55;;;5.25;;
66626;SDS011;53498;50.422;14.912;2023-03-31T04:21:28;5.85;;;4.72;;
66626;SDS011;53498;50.422;14.912;2023-03-31T04:23:55;9.68;;;5.15;;
66626;SDS011;53498;50.422;14.912;2023-03-31T04:26:26;7.72;;;4.97;;
66626;SDS011;53498;50.422;14.912;2023-03-31T04:29:04;9.60;;;5.30;;
66626;SDS011;53498;50.422;14.912;2023-03-31T04:31:31;7.82;;;5.35;;
66626;SDS011;53498;50.422;14.912;2023-03-31T04:33:58;9.35;;;5.60;;
66626;SDS011;53498;50.422;14.912;2023-03-31T04:36:27;11.48;;;6.50;;
66626;SDS011;53498;50.422;14.912;2023-03-31T04:38:53;9.45;;;5.30;;
66626;SDS011;53498;50.422;14.912;2023-03-31T04:41:19;7.75;;;5.15;;
66626;SDS011;53498;50.422;14.912;2023-03-31T04:43:46;8.93;;;5.20;;
66626;SDS011;53498;50.422;14.912;2023-03-31T04:46:11;7.93;;;6.30;;
66626;SDS011;53498;50.422;14.912;2023-03-31T04:48:38;5.72;;;5.00;;
66626;SDS011;53498;50.422;14.912;2023-03-31T04:51:03;8.65;;;5.68;;
66626;SDS011;53498;50.422;14.912;2023-03-31T04:53:29;9.32;;;5.60;;
66626;SDS011;53498;50.422;14.912;2023-03-31T04:55:55;8.25;;;5.63;;
66626;SDS011;53498;50.422;14.912;2023-03-31T04:58:21;10.02;;;6.85;;
66626;SDS011;53498;50.422;14.912;2023-03-31T05:00:46;9.77;;;6.60;;
66626;SDS011;53498;50.422;14.912;2023-03-31T05:03:12;8.27;;;6.57;;
66626;SDS011;53498;50.422;14.912;2023-03-31T05:05:38;9.88;;;6.68;;
66626;SDS011;53498;50.422;14.912;2023-03-31T05:08:03;9.55;;;7.38;;
66626;SDS011;53498;50.422;14.912;2023-03-31T05:10:29;9.93;;;6.97;;
66626;SDS011;53498;50.422;14.912;2023-03-31T05:12:55;8.38;;;5.72;;
66626;SDS011;53498;50.422;14.912;2023-03-31T05:15:21;9.45;;;7.18;;
66626;SDS011;53498;50.422;14.912;2023-03-31T05:17:49;12.32;;;7.03;;
66626;SDS011;53498;50.422;14.912;2023-03-31T05:20:15;11.15;;;7.00;;
66626;SDS011;53498;50.422;14.912;2023-03-31T05:22:43;13.15;;;8.65;;
66626;SDS011;53498;50.422;14.912;2023-03-31T05:25:10;10.75;;;7.25;;
66626;SDS011;53498;50.422;14.912;2023-03-31T05:27:43;12.80;;;8.50;;
66626;SDS011;53498;50.422;14.912;2023-03-31T05:30:11;12.55;;;9.18;;
66626;SDS011;53498;50.422;14.912;2023-03-31T05:32:38;12.20;;;8.10;;
66626;SDS011;53498;50.422;14.912;2023-03-31T05:35:04;14.65;;;7.80;;
66626;SDS011;53498;50.422;14.912;2023-03-31T05:37:29;12.68;;;8.30;;
66626;SDS011;53498;50.422;14.912;2023-03-31T05:39:56;11.73;;;7.38;;
66626;SDS011;53498;50.422;14.912;2023-03-31T05:42:21;11.13;;;7.63;;
66626;SDS011;53498;50.422;14.912;2023-03-31T05:44:47;13.48;;;7.88;;
66626;SDS011;53498;50.422;14.912;2023-03-31T05:47:13;12.40;;;7.72;;
66626;SDS011;53498;50.422;14.912;2023-03-31T05:49:39;12.13;;;6.95;;
66626;SDS011;53498;50.422;14.912;2023-03-31T05:52:05;12.52;;;7.50;;
66626;SDS011;53498;50.422;14.912;2023-03-31T05:54:32;9.45;;;7.13;;
66626;SDS011;53498;50.422;14.912;2023-03-31T05:56:57;13.70;;;7.97;;
66626;SDS011;53498;50.422;14.912;2023-03-31T05:59:23;11.07;;;7.55;;
66626;SDS011;53498;50.422;14.912;2023-03-31T06:01:49;11.45;;;7.47;;
66626;SDS011;53498;50.422;14.912;2023-03-31T06:04:14;14.43;;;7.28;;
66626;SDS011;53498;50.422;14.912;2023-03-31T06:06:40;10.40;;;6.95;;
66626;SDS011;53498;50.422;14.912;2023-03-31T06:09:07;13.35;;;7.63;;
66626;SDS011;53498;50.422;14.912;2023-03-31T06:11:33;12.80;;;7.07;;
66626;SDS011;53498;50.422;14.912;2023-03-31T06:13:58;9.80;;;7.03;;
66626;SDS011;53498;50.422;14.912;2023-03-31T06:16:24;13.93;;;8.73;;
66626;SDS011;53498;50.422;14.912;2023-03-31T06:18:50;13.25;;;9.13;;
66626;SDS011;53498;50.422;14.912;2023-03-31T06:21:17;10.18;;;7.07;;
66626;SDS011;53498;50.422;14.912;2023-03-31T06:23:43;11.25;;;7.10;;
66626;SDS011;53498;50.422;14.912;2023-03-31T06:26:14;13.25;;;6.30;;
66626;SDS011;53498;50.422;14.912;2023-03-31T06:28:41;10.40;;;6.10;;
66626;SDS011;53498;50.422;14.912;2023-03-31T06:31:09;13.52;;;6.65;;
66626;SDS011;53498;50.422;14.912;2023-03-31T06:33:37;12.15;;;6.63;;
66626;SDS011;53498;50.422;14.912;2023-03-31T06:36:04;11.35;;;6.75;;
66626;SDS011;53498;50.422;14.912;2023-03-31T06:38:31;9.80;;;6.00;;
66626;SDS011;53498;50.422;14.912;2023-03-31T06:40:58;8.65;;;5.57;;
66626;SDS011;53498;50.422;14.912;2023-03-31T06:43:23;8.40;;;5.90;;
66626;SDS011;53498;50.422;14.912;2023-03-31T06:45:55;14.13;;;7.30;;
66626;SDS011;53498;50.422;14.912;2023-03-31T06:48:21;9.73;;;6.05;;
66626;SDS011;53498;50.422;14.912;2023-03-31T06:50:47;9.50;;;6.85;;
66626;SDS011;53498;50.422;14.912;2023-03-31T06:53:13;13.25;;;7.18;;
66626;SDS011;53498;50.422;14.912;2023-03-31T06:55:39;12.40;;;6.70;;
66626;SDS011;53498;50.422;14.912;2023-03-31T06:58:05;12.95;;;7.30;;
66626;SDS011;53498;50.422;14.912;2023-03-31T07:00:31;12.40;;;6.05;;
66626;SDS011;53498;50.422;14.912;2023-03-31T07:02:57;9.98;;;6.38;;
66626;SDS011;53498;50.422;14.912;2023-03-31T07:05:23;9.02;;;6.07;;
66626;SDS011;53498;50.422;14.912;2023-03-31T07:07:52;11.43;;;5.95;;
66626;SDS011;53498;50.422;14.912;2023-03-31T07:10:17;9.55;;;6.07;;
66626;SDS011;53498;50.422;14.912;2023-03-31T07:12:43;8.27;;;6.00;;
66626;SDS011;53498;50.422;14.912;2023-03-31T07:15:09;9.45;;;5.57;;
66626;SDS011;53498;50.422;14.912;2023-03-31T07:17:35;7.30;;;4.63;;
66626;SDS011;53498;50.422;14.912;2023-03-31T07:20:02;9.73;;;5.40;;
66626;SDS011;53498;50.422;14.912;2023-03-31T07:22:32;6.88;;;4.60;;
66626;SDS011;53498;50.422;14.912;2023-03-31T07:24:57;10.38;;;4.88;;
66626;SDS011;53498;50.422;14.912;2023-03-31T07:27:23;10.95;;;4.82;;
66626;SDS011;53498;50.422;14.912;2023-03-31T07:29:48;7.57;;;4.43;;
66626;SDS011;53498;50.422;14.912;2023-03-31T07:32:15;7.18;;;3.80;;
66626;SDS011;53498;50.422;14.912;2023-03-31T07:34:40;5.40;;;3.75;;
66626;SDS011;53498;50.422;14.912;2023-03-31T07:37:06;7.03;;;3.55;;
66626;SDS011;53498;50.422;14.912;2023-03-31T07:39:31;6.53;;;4.03;;
66626;SDS011;53498;50.422;14.912;2023-03-31T07:41:57;8.23;;;4.10;;
66626;SDS011;53498;50.422;14.912;2023-03-31T07:44:23;5.60;;;3.55;;
66626;SDS011;53498;50.422;14.912;2023-03-31T07:46:48;8.40;;;3.70;;
66626;SDS011;53498;50.422;14.912;2023-03-31T07:49:14;8.48;;;4.18;;
66626;SDS011;53498;50.422;14.912;2023-03-31T07:51:40;6.05;;;3.40;;
66626;SDS011;53498;50.422;14.912;2023-03-31T07:54:05;6.43;;;4.18;;
66626;SDS011;53498;50.422;14.912;2023-03-31T07:56:31;6.15;;;3.67;;
66626;SDS011;53498;50.422;14.912;2023-03-31T07:58:57;7.05;;;3.72;;
66626;SDS011;53498;50.422;14.912;2023-03-31T08:01:22;6.85;;;4.18;;
66626;SDS011;53498;50.422;14.912;2023-03-31T08:03:50;4.82;;;3.95;;
66626;SDS011;53498;50.422;14.912;2023-03-31T08:06:19;7.85;;;4.57;;
66626;SDS011;53498;50.422;14.912;2023-03-31T08:08:46;7.55;;;4.57;;
66626;SDS011;53498;50.422;14.912;2023-03-31T08:11:13;9.30;;;4.50;;
66626;SDS011;53498;50.422;14.912;2023-03-31T08:13:39;9.82;;;4.10;;
66626;SDS011;53498;50.422;14.912;2023-03-31T08:16:04;7.18;;;3.28;;
66626;SDS011;53498;50.422;14.912;2023-03-31T08:18:30;7.65;;;3.35;;
66626;SDS011;53498;50.422;14.912;2023-03-31T08:20:56;10.25;;;4.97;;
66626;SDS011;53498;50.422;14.912;2023-03-31T08:23:21;7.38;;;3.97;;
66626;SDS011;53498;50.422;14.912;2023-03-31T08:25:47;6.45;;;3.40;;
66626;SDS011;53498;50.422;14.912;2023-03-31T08:28:12;8.43;;;4.28;;
66626;SDS011;53498;50.422;14.912;2023-03-31T08:30:39;8.27;;;5.55;;
66626;SDS011;53498;50.422;14.912;2023-03-31T08:33:05;10.45;;;5.38;;
66626;SDS011;53498;50.422;14.912;2023-03-31T08:35:36;7.40;;;5.05;;
66626;SDS011;53498;50.422;14.912;2023-03-31T08:38:02;8.80;;;3.58;;
66626;SDS011;53498;50.422;14.912;2023-03-31T08:40:29;6.55;;;3.75;;
66626;SDS011;53498;50.422;14.912;2023-03-31T08:43:01;7.85;;;3.50;;
66626;SDS011;53498;50.422;14.912;2023-03-31T08:45:33;5.15;;;3.63;;
66626;SDS011;53498;50.422;14.912;2023-03-31T08:48:05;7.20;;;4.15;;
66626;SDS011;53498;50.422;14.912;2023-03-31T08:50:32;5.43;;;4.10;;
66626;SDS011;53498;50.422;14.912;2023-03-31T08:53:07;8.70;;;4.50;;
66626;SDS011;53498;50.422;14.912;2023-03-31T08:55:51;8.75;;;4.78;;
66626;SDS011;53498;50.422;14.912;2023-03-31T09:03:33;6.38;;;3.70;;
66626;SDS011;53498;50.422;14.912;2023-03-31T09:06:04;10.02;;;4.35;;
66626;SDS011;53498;50.422;14.912;2023-03-31T09:08:42;9.18;;;4.03;;
66626;SDS011;53498;50.422;14.912;2023-03-31T09:11:10;9.70;;;3.95;;
66626;SDS011;53498;50.422;14.912;2023-03-31T09:19:20;6.35;;;4.55;;
66626;SDS011;53498;50.422;14.912;2023-03-31T09:21:57;9.30;;;4.68;;
66626;SDS011;53498;50.422;14.912;2023-03-31T09:24:29;8.13;;;5.30;;
66626;SDS011;53498;50.422;14.912;2023-03-31T09:27:09;9.95;;;5.30;;
66626;SDS011;53498;50.422;14.912;2023-03-31T09:32:21;7.28;;;4.80;;
66626;SDS011;53498;50.422;14.912;2023-03-31T09:34:54;9.20;;;4.82;;
66626;SDS011;53498;50.422;14.912;2023-03-31T09:37:26;7.90;;;4.65;;
66626;SDS011;53498;50.422;14.912;2023-03-31T09:39:56;9.50;;;4.32;;
66626;SDS011;53498;50.422;14.912;2023-03-31T09:42:24;9.65;;;4.82;;
66626;SDS011;53498;50.422;14.912;2023-03-31T09:44:50;5.38;;;4.28;;
66626;SDS011;53498;50.422;14.912;2023-03-31T09:47:20;7.07;;;4.95;;
66626;SDS011;53498;50.422;14.912;2023-03-31T09:49:56;7.30;;;3.80;;
66626;SDS011;53498;50.422;14.912;2023-03-31T09:55:16;6.90;;;3.70;;
66626;SDS011;53498;50.422;14.912;2023-03-31T09:57:42;7.00;;;3.85;;
66626;SDS011;53498;50.422;14.912;2023-03-31T10:00:14;10.52;;;3.90;;
66626;SDS011;53498;50.422;14.912;2023-03-31T10:05:17;7.43;;;4.28;;
66626;SDS011;53498;50.422;14.912;2023-03-31T10:07:54;6.78;;;3.67;;
66626;SDS011;53498;50.422;14.912;2023-03-31T10:11:11;5.65;;;4.10;;
66626;SDS011;53498;50.422;14.912;2023-03-31T10:14:00;8.40;;;4.65;;
66626;SDS011;53498;50.422;14.912;2023-03-31T10:16:42;9.13;;;4.72;;
66626;SDS011;53498;50.422;14.912;2023-03-31T10:22:13;7.68;;;4.90;;
66626;SDS011;53498;50.422;14.912;2023-03-31T10:25:13;7.85;;;4.97;;
66626;SDS011;53498;50.422;14.912;2023-03-31T10:27:42;10.15;;;5.25;;
66626;SDS011;53498;50.422;14.912;2023-03-31T10:30:11;6.75;;;4.45;;
66626;SDS011;53498;50.422;14.912;2023-03-31T10:32:44;8.80;;;4.30;;
66626;SDS011;53498;50.422;14.912;2023-03-31T10:37:45;9.80;;;5.43;;
66626;SDS011;53498;50.422;14.912;2023-03-31T10:40:20;7.72;;;4.93;;
66626;SDS011;53498;50.422;14.912;2023-03-31T10:42:49;10.43;;;5.38;;
66626;SDS011;53498;50.422;14.912;2023-03-31T10:45:26;7.93;;;4.55;;
66626;SDS011;53498;50.422;14.912;2023-03-31T10:47:57;7.80;;;4.93;;
66626;SDS011;53498;50.422;14.912;2023-03-31T10:50:31;6.93;;;4.43;;
66626;SDS011;53498;50.422;14.912;2023-03-31T10:55:32;6.13;;;3.67;;
66626;SDS011;53498;50.422;14.912;2023-03-31T11:00:51;13.20;;;4.90;;
66626;SDS011;53498;50.422;14.912;2023-03-31T11:17:25;5.68;;;3.75;;
66626;SDS011;53498;50.422;14.912;2023-03-31T11:20:14;9.10;;;4.15;;
66626;SDS011;53498;50.422;14.912;2023-03-31T11:22:55;7.65;;;3.95;;
66626;SDS011;53498;50.422;14.912;2023-03-31T11:42:47;7.03;;;3.45;;
66626;SDS011;53498;50.422;14.912;2023-03-31T11:45:19;12.75;;;4.13;;
66626;SDS011;53498;50.422;14.912;2023-03-31T11:47:49;5.97;;;3.63;;
66626;SDS011;53498;50.422;14.912;2023-03-31T11:50:20;5.15;;;3.72;;
66626;SDS011;53498;50.422;14.912;2023-03-31T11:52:59;7.75;;;3.97;;
66626;SDS011;53498;50.422;14.912;2023-03-31T11:55:30;9.05;;;4.40;;
66626;SDS011;53498;50.422;14.912;2023-03-31T11:58:01;11.95;;;4.82;;
66626;SDS011;53498;50.422;14.912;2023-03-31T12:03:27;7.18;;;4.38;;
66626;SDS011;53498;50.422;14.912;2023-03-31T12:06:11;8.13;;;4.28;;
66626;SDS011;53498;50.422;14.912;2023-03-31T12:08:48;6.50;;;3.95;;
66626;SDS011;53498;50.422;14.912;2023-03-31T12:11:37;12.48;;;5.00;;
66626;SDS011;53498;50.422;14.912;2023-03-31T12:16:54;7.90;;;4.50;;
66626;SDS011;53498;50.422;14.912;2023-03-31T12:19:32;8.32;;;4.78;;
66626;SDS011;53498;50.422;14.912;2023-03-31T12:22:17;8.18;;;5.30;;
66626;SDS011;53498;50.422;14.912;2023-03-31T12:24:48;7.32;;;4.32;;
66626;SDS011;53498;50.422;14.912;2023-03-31T12:27:26;7.40;;;5.63;;
66626;SDS011;53498;50.422;14.912;2023-03-31T12:32:37;7.40;;;4.70;;
66626;SDS011;53498;50.422;14.912;2023-03-31T12:35:13;9.95;;;4.43;;
66626;SDS011;53498;50.422;14.912;2023-03-31T12:43:44;11.73;;;4.68;;
66626;SDS011;53498;50.422;14.912;2023-03-31T12:48:55;9.77;;;5.10;;
66626;SDS011;53498;50.422;14.912;2023-03-31T12:57:14;8.07;;;4.65;;
66626;SDS011;53498;50.422;14.912;2023-03-31T12:59:45;7.85;;;5.05;;
66626;SDS011;53498;50.422;14.912;2023-03-31T13:02:32;11.50;;;5.85;;
66626;SDS011;53498;50.422;14.912;2023-03-31T13:04:58;7.38;;;5.18;;
66626;SDS011;53498;50.422;14.912;2023-03-31T13:09:55;8.65;;;6.15;;
66626;SDS011;53498;50.422;14.912;2023-03-31T13:15:26;7.20;;;4.50;;
66626;SDS011;53498;50.422;14.912;2023-03-31T13:17:58;6.80;;;4.53;;
66626;SDS011;53498;50.422;14.912;2023-03-31T13:20:36;9.82;;;5.07;;
66626;SDS011;53498;50.422;14.912;2023-03-31T13:23:16;4.60;;;3.38;;
66626;SDS011;53498;50.422;14.912;2023-03-31T13:25:45;6.70;;;3.88;;
66626;SDS011;53498;50.422;14.912;2023-03-31T13:28:15;4.38;;;3.53;;
66626;SDS011;53498;50.422;14.912;2023-03-31T13:33:27;4.80;;;3.42;;
66626;SDS011;53498;50.422;14.912;2023-03-31T13:36:09;5.55;;;2.97;;
66626;SDS011;53498;50.422;14.912;2023-03-31T13:41:28;5.55;;;3.75;;
66626;SDS011;53498;50.422;14.912;2023-03-31T13:52:23;5.47;;;3.40;;
66626;SDS011;53498;50.422;14.912;2023-03-31T14:05:24;6.45;;;4.38;;
66626;SDS011;53498;50.422;14.912;2023-03-31T14:07:57;6.38;;;3.90;;
66626;SDS011;53498;50.422;14.912;2023-03-31T14:10:27;4.90;;;3.50;;
66626;SDS011;53498;50.422;14.912;2023-03-31T14:13:03;5.35;;;3.67;;
66626;SDS011;53498;50.422;14.912;2023-03-31T14:15:30;6.30;;;4.15;;
66626;SDS011;53498;50.422;14.912;2023-03-31T14:17:57;6.82;;;3.83;;
66626;SDS011;53498;50.422;14.912;2023-03-31T14:20:25;6.25;;;4.20;;
66626;SDS011;53498;50.422;14.912;2023-03-31T14:25:48;6.22;;;4.07;;
66626;SDS011;53498;50.422;14.912;2023-03-31T14:31:10;6.70;;;3.53;;
66626;SDS011;53498;50.422;14.912;2023-03-31T14:33:53;3.67;;;2.65;;
66626;SDS011;53498;50.422;14.912;2023-03-31T14:37:01;4.65;;;3.17;;
66626;SDS011;53498;50.422;14.912;2023-03-31T14:39:34;7.10;;;3.17;;
66626;SDS011;53498;50.422;14.912;2023-03-31T14:42:03;8.10;;;4.15;;
66626;SDS011;53498;50.422;14.912;2023-03-31T14:44:34;7.15;;;3.20;;
66626;SDS011;53498;50.422;14.912;2023-03-31T14:47:00;4.72;;;3.20;;
66626;SDS011;53498;50.422;14.912;2023-03-31T14:49:28;5.32;;;2.78;;
66626;SDS011;53498;50.422;14.912;2023-03-31T14:52:03;5.60;;;2.85;;
66626;SDS011;53498;50.422;14.912;2023-03-31T14:54:42;4.90;;;2.65;;
66626;SDS011;53498;50.422;14.912;2023-03-31T14:57:10;4.32;;;3.00;;
66626;SDS011;53498;50.422;14.912;2023-03-31T14:59:41;3.78;;;2.67;;
66626;SDS011;53498;50.422;14.912;2023-03-31T15:02:08;4.63;;;2.30;;
66626;SDS011;53498;50.422;14.912;2023-03-31T15:04:42;4.10;;;2.33;;
66626;SDS011;53498;50.422;14.912;2023-03-31T15:07:11;6.05;;;2.80;;
66626;SDS011;53498;50.422;14.912;2023-03-31T15:09:37;5.60;;;2.33;;
66626;SDS011;53498;50.422;14.912;2023-03-31T15:12:10;4.13;;;2.35;;
66626;SDS011;53498;50.422;14.912;2023-03-31T15:14:41;3.55;;;2.45;;
66626;SDS011;53498;50.422;14.912;2023-03-31T15:17:21;3.75;;;1.85;;
66626;SDS011;53498;50.422;14.912;2023-03-31T15:19:56;2.33;;;2.08;;
66626;SDS011;53498;50.422;14.912;2023-03-31T15:24:51;2.55;;;1.60;;
66626;SDS011;53498;50.422;14.912;2023-03-31T15:30:00;4.65;;;1.35;;
66626;SDS011;53498;50.422;14.912;2023-03-31T15:32:34;3.83;;;1.70;;
66626;SDS011;53498;50.422;14.912;2023-03-31T15:35:01;3.10;;;1.50;;
66626;SDS011;53498;50.422;14.912;2023-03-31T15:37:29;2.40;;;1.60;;
66626;SDS011;53498;50.422;14.912;2023-03-31T15:40:02;2.33;;;1.50;;
66626;SDS011;53498;50.422;14.912;2023-03-31T15:42:33;6.63;;;2.15;;
66626;SDS011;53498;50.422;14.912;2023-03-31T15:47:52;4.22;;;1.50;;
66626;SDS011;53498;50.422;14.912;2023-03-31T15:50:21;2.75;;;1.20;;
66626;SDS011;53498;50.422;14.912;2023-03-31T15:52:49;1.30;;;0.93;;
66626;SDS011;53498;50.422;14.912;2023-03-31T15:55:27;3.33;;;1.52;;
66626;SDS011;53498;50.422;14.912;2023-03-31T15:58:03;3.10;;;1.10;;
66626;SDS011;53498;50.422;14.912;2023-03-31T16:02:57;3.28;;;1.23;;
66626;SDS011;53498;50.422;14.912;2023-03-31T16:07:58;1.98;;;1.05;;
66626;SDS011;53498;50.422;14.912;2023-03-31T16:10:25;2.47;;;1.23;;
66626;SDS011;53498;50.422;14.912;2023-03-31T16:12:52;2.88;;;1.20;;
66626;SDS011;53498;50.422;14.912;2023-03-31T16:15:29;1.90;;;1.20;;
66626;SDS011;53498;50.422;14.912;2023-03-31T16:18:05;1.17;;;0.98;;
66626;SDS011;53498;50.422;14.912;2023-03-31T16:20:35;3.28;;;1.25;;
66626;SDS011;53498;50.422;14.912;2023-03-31T16:23:15;2.05;;;1.27;;
66626;SDS011;53498;50.422;14.912;2023-03-31T16:25:53;2.80;;;1.38;;
66626;SDS011;53498;50.422;14.912;2023-03-31T16:28:21;3.78;;;1.13;;
66626;SDS011;53498;50.422;14.912;2023-03-31T16:30:49;3.92;;;1.52;;
66626;SDS011;53498;50.422;14.912;2023-03-31T16:33:17;2.30;;;1.80;;
66626;SDS011;53498;50.422;14.912;2023-03-31T16:35:45;3.92;;;2.35;;
66626;SDS011;53498;50.422;14.912;2023-03-31T16:38:29;3.70;;;1.52;;
66626;SDS011;53498;50.422;14.912;2023-03-31T16:40:55;3.38;;;2.13;;
66626;SDS011;53498;50.422;14.912;2023-03-31T16:43:26;3.50;;;2.80;;
66626;SDS011;53498;50.422;14.912;2023-03-31T16:45:55;3.45;;;1.90;;
66626;SDS011;53498;50.422;14.912;2023-03-31T16:48:24;2.88;;;1.58;;
66626;SDS011;53498;50.422;14.912;2023-03-31T16:50:52;2.65;;;1.95;;
66626;SDS011;53498;50.422;14.912;2023-03-31T16:53:29;3.95;;;1.50;;
66626;SDS011;53498;50.422;14.912;2023-03-31T16:55:58;3.22;;;1.75;;
66626;SDS011;53498;50.422;14.912;2023-03-31T16:58:24;4.75;;;1.85;;
66626;SDS011;53498;50.422;14.912;2023-03-31T17:00:52;3.92;;;1.70;;
66626;SDS011;53498;50.422;14.912;2023-03-31T17:03:18;3.55;;;1.40;;
66626;SDS011;53498;50.422;14.912;2023-03-31T17:05:45;3.42;;;1.88;;
66626;SDS011;53498;50.422;14.912;2023-03-31T17:08:12;4.20;;;2.55;;
66626;SDS011;53498;50.422;14.912;2023-03-31T17:10:40;2.28;;;1.80;;
66626;SDS011;53498;50.422;14.912;2023-03-31T17:13:06;6.18;;;2.10;;
66626;SDS011;53498;50.422;14.912;2023-03-31T17:15:33;2.50;;;2.15;;
66626;SDS011;53498;50.422;14.912;2023-03-31T17:18:02;3.30;;;1.83;;
66626;SDS011;53498;50.422;14.912;2023-03-31T17:20:29;2.47;;;1.80;;
66626;SDS011;53498;50.422;14.912;2023-03-31T17:22:55;5.35;;;2.50;;
66626;SDS011;53498;50.422;14.912;2023-03-31T17:25:21;4.28;;;2.20;;
66626;SDS011;53498;50.422;14.912;2023-03-31T17:27:46;3.35;;;2.08;;
66626;SDS011;53498;50.422;14.912;2023-03-31T17:30:13;3.00;;;1.98;;
66626;SDS011;53498;50.422;14.912;2023-03-31T17:32:38;3.08;;;2.13;;
66626;SDS011;53498;50.422;14.912;2023-03-31T17:35:04;4.00;;;2.15;;
66626;SDS011;53498;50.422;14.912;2023-03-31T17:37:31;4.05;;;2.60;;
66626;SDS011;53498;50.422;14.912;2023-03-31T17:39:57;4.07;;;2.63;;
66626;SDS011;53498;50.422;14.912;2023-03-31T17:42:23;4.65;;;2.80;;
66626;SDS011;53498;50.422;14.912;2023-03-31T17:44:49;3.65;;;2.60;;
66626;SDS011;53498;50.422;14.912;2023-03-31T17:47:18;4.43;;;2.53;;
66626;SDS011;53498;50.422;14.912;2023-03-31T17:49:45;3.65;;;2.58;;
66626;SDS011;53498;50.422;14.912;2023-03-31T17:52:10;6.93;;;3.05;;
66626;SDS011;53498;50.422;14.912;2023-03-31T17:54:36;4.68;;;2.92;;
66626;SDS011;53498;50.422;14.912;2023-03-31T17:57:02;4.55;;;2.78;;